Time;durP1;ratioP1;P1;durP2;ratioP2;P2;SDS_P1;SDS_P2;PMS_P1;PMS_P2;Temp;Humidity;BMP_temperature;BMP_pressure;BME280_temperature;BME280_humidity;BME280_pressure;Samples;Min_cycle;Max_cycle;Signal;HPM_P1;HPM_P2
2021/01/29 00:00:39;;;;;;;4.83;4.33;;;2.40;99.90;;;;;;5026770;28;20595;-65
2021/01/29 00:03:23;;;;;;;4.73;4.23;;;2.40;99.90;;;;;;5007286;28;20645;-67
2021/01/29 00:06:09;;;;;;;6.00;4.60;;;2.40;99.90;;;;;;5027481;28;20619;-66
2021/01/29 00:08:54;;;;;;;5.20;4.10;;;2.40;99.90;;;;;;5015337;28;20582;-67
2021/01/29 00:11:38;;;;;;;5.40;4.03;;;2.30;99.90;;;;;;5028604;28;20625;-66
2021/01/29 00:14:23;;;;;;;5.03;4.13;;;2.30;99.90;;;;;;5027149;28;20642;-67
2021/01/29 00:17:07;;;;;;;4.70;4.20;;;2.40;99.90;;;;;;5038866;28;21324;-67
2021/01/29 00:19:54;;;;;;;4.63;4.23;;;2.40;99.90;;;;;;5012681;28;21034;-67
2021/01/29 00:22:39;;;;;;;4.83;4.30;;;2.30;99.90;;;;;;5027964;28;21106;-67
2021/01/29 00:25:28;;;;;;;5.10;4.60;;;2.40;99.90;;;;;;5026943;28;20650;-67
2021/01/29 00:28:13;;;;;;;5.13;4.60;;;2.30;99.90;;;;;;5015422;28;20702;-67
2021/01/29 00:30:58;;;;;;;6.30;4.90;;;2.30;99.90;;;;;;5030894;28;21189;-67
2021/01/29 00:33:42;;;;;;;6.20;4.93;;;2.40;99.90;;;;;;5009095;28;20642;-67
2021/01/29 00:36:29;;;;;;;5.40;4.33;;;2.30;99.90;;;;;;5014779;28;20594;-67
2021/01/29 00:39:14;;;;;;;5.37;4.90;;;2.30;99.90;;;;;;5028142;28;21197;-67
2021/01/29 00:41:58;;;;;;;7.40;4.80;;;2.30;99.90;;;;;;5030718;28;20641;-67
2021/01/29 00:44:43;;;;;;;6.43;4.60;;;2.30;99.90;;;;;;5010377;28;20658;-67
2021/01/29 00:47:27;;;;;;;5.20;4.50;;;2.30;99.90;;;;;;5028356;28;20615;-66
2021/01/29 00:50:15;;;;;;;5.40;4.57;;;2.30;99.90;;;;;;5013819;28;20586;-67
2021/01/29 00:52:59;;;;;;;7.83;5.40;;;2.30;99.90;;;;;;5009426;28;20657;-67
2021/01/29 00:55:44;;;;;;;6.30;5.70;;;2.30;99.90;;;;;;5010283;28;20715;-67
2021/01/29 00:58:29;;;;;;;6.83;5.33;;;2.30;99.90;;;;;;5014294;28;20606;-67
2021/01/29 01:01:14;;;;;;;5.23;4.80;;;2.30;99.90;;;;;;5016655;28;20661;-67
2021/01/29 01:04:01;;;;;;;5.63;4.97;;;2.30;99.90;;;;;;5005198;28;20684;-67
2021/01/29 01:06:46;;;;;;;6.53;5.03;;;2.30;99.90;;;;;;5021694;28;20607;-67
2021/01/29 01:09:31;;;;;;;6.80;4.67;;;2.40;99.90;;;;;;5021081;28;20594;-66
2021/01/29 01:12:15;;;;;;;5.40;4.90;;;2.40;99.90;;;;;;5021339;28;20719;-67
2021/01/29 01:15:00;;;;;;;5.57;4.97;;;2.30;99.90;;;;;;5019373;28;20709;-66
2021/01/29 01:17:47;;;;;;;5.43;4.93;;;2.30;99.90;;;;;;5019074;28;20665;-67
2021/01/29 01:20:32;;;;;;;5.70;5.10;;;2.40;99.90;;;;;;5010314;28;20596;-67
2021/01/29 01:23:16;;;;;;;5.30;4.70;;;2.30;99.90;;;;;;5019789;28;21173;-67
2021/01/29 01:26:01;;;;;;;6.20;5.60;;;2.30;99.90;;;;;;5023541;28;20654;-68
2021/01/29 01:28:45;;;;;;;5.93;5.00;;;2.30;99.90;;;;;;5020267;28;21007;-67
2021/01/29 01:31:30;;;;;;;6.47;4.90;;;2.30;99.90;;;;;;5022613;28;20647;-67
2021/01/29 01:34:15;;;;;;;5.27;4.83;;;2.40;99.90;;;;;;5018558;28;20746;-67
2021/01/29 01:37:00;;;;;;;6.20;5.10;;;2.40;99.90;;;;;;5013574;28;21169;-66
2021/01/29 01:39:44;;;;;;;5.77;5.07;;;2.40;99.90;;;;;;5004316;28;20603;-66
2021/01/29 01:42:31;;;;;;;6.40;5.10;;;2.40;99.90;;;;;;5022597;28;20655;-67
2021/01/29 01:45:28;;;;;;;5.40;4.90;;;2.40;99.90;;;;;;5030894;28;20713;-67
2021/01/29 01:48:18;;;;;;;8.00;4.87;;;2.40;99.90;;;;;;5021050;28;21338;-67
2021/01/29 01:51:05;;;;;;;5.93;5.10;;;2.40;99.90;;;;;;5018851;28;20664;-66
2021/01/29 01:53:54;;;;;;;6.83;4.70;;;2.40;99.90;;;;;;5021329;28;20642;-68
2021/01/29 01:56:44;;;;;;;6.40;4.23;;;2.40;99.90;;;;;;5015103;28;20618;-66
2021/01/29 01:59:37;;;;;;;5.23;4.70;;;2.40;99.90;;;;;;5022184;28;21074;-67
2021/01/29 02:02:26;;;;;;;4.80;4.40;;;2.40;99.90;;;;;;5022435;28;20675;-67
2021/01/29 02:05:27;;;;;;;5.50;4.13;;;2.30;99.90;;;;;;5018712;28;21284;-65
2021/01/29 02:08:14;;;;;;;5.20;4.63;;;2.30;99.90;;;;;;5024847;28;20622;-65
2021/01/29 02:10:58;;;;;;;6.70;4.60;;;2.30;99.90;;;;;;5024468;28;20592;-65
2021/01/29 02:13:43;;;;;;;9.23;4.60;;;2.30;99.90;;;;;;5019325;28;20741;-65
2021/01/29 02:16:42;;;;;;;4.10;3.70;;;2.30;99.90;;;;;;4996369;28;21226;-65
2021/01/29 02:19:55;;;;;;;5.40;3.97;;;2.30;99.90;;;;;;5030412;28;20712;-65
2021/01/29 02:23:12;;;;;;;3.30;3.00;;;2.30;99.90;;;;;;4965266;28;21139;-65
2021/01/29 02:26:03;;;;;;;4.00;3.60;;;2.40;99.90;;;;;;5031127;28;20737;-65
2021/01/29 02:29:42;;;;;;;4.20;3.50;;;2.30;99.90;;;;;;5029114;28;20610;-66
2021/01/29 02:32:38;;;;;;;3.27;3.00;;;2.30;99.90;;;;;;4925764;29;20835;-65
2021/01/29 02:36:01;;;;;;;4.00;3.50;;;2.30;99.90;;;;;;5026733;28;20759;-66
2021/01/29 02:39:13;;;;;;;3.60;3.30;;;2.30;99.90;;;;;;4992213;28;20754;-65
2021/01/29 02:42:18;;;;;;;3.37;3.07;;;2.20;99.90;;;;;;5025999;28;21010;-66
2021/01/29 02:45:17;;;;;;;3.30;3.00;;;2.20;99.90;;;;;;5024150;28;21252;-66
2021/01/29 02:48:14;;;;;;;3.47;3.27;;;2.30;99.90;;;;;;5025112;28;20638;-66
2021/01/29 02:51:09;;;;;;;4.13;3.13;;;2.20;99.90;;;;;;5026917;28;20633;-68
2021/01/29 02:54:13;;;;;;;6.70;3.03;;;2.30;99.90;;;;;;5022988;28;20635;-65
2021/01/29 02:57:19;;;;;;;3.40;3.07;;;2.30;99.90;;;;;;5017700;28;20586;-64
2021/01/29 03:00:13;;;;;;;3.30;2.93;;;2.30;99.90;;;;;;5030342;28;20594;-66
2021/01/29 03:03:26;;;;;;;2.90;2.70;;;2.30;99.90;;;;;;5006652;28;20726;-66
2021/01/29 03:06:15;;;;;;;5.13;2.67;;;2.20;99.90;;;;;;5003487;28;20666;-65
2021/01/29 03:09:07;;;;;;;3.50;3.20;;;2.20;99.90;;;;;;5017838;28;21178;-66
2021/01/29 03:12:01;;;;;;;2.97;2.77;;;2.20;99.90;;;;;;5022396;28;20705;-66
2021/01/29 03:15:13;;;;;;;3.27;2.97;;;2.20;99.90;;;;;;5008225;28;21002;-66
2021/01/29 03:18:04;;;;;;;3.00;2.77;;;2.20;99.90;;;;;;5021162;28;20610;-66
2021/01/29 03:21:15;;;;;;;4.03;2.67;;;2.20;99.90;;;;;;5012162;28;21005;-66
2021/01/29 03:24:11;;;;;;;3.50;2.60;;;2.30;99.90;;;;;;4998265;28;21268;-66
2021/01/29 03:27:19;;;;;;;4.40;2.60;;;2.20;99.90;;;;;;5014793;28;20619;-67
2021/01/29 03:30:17;;;;;;;3.07;2.73;;;2.20;99.90;;;;;;5020034;28;20666;-66
2021/01/29 03:33:03;;;;;;;3.10;2.73;;;2.20;99.90;;;;;;5022934;28;20646;-66
2021/01/29 03:36:08;;;;;;;3.83;2.70;;;2.10;99.90;;;;;;5020504;28;20654;-66
2021/01/29 03:39:01;;;;;;;2.60;2.40;;;2.10;99.90;;;;;;5003931;28;20642;-66
2021/01/29 03:41:50;;;;;;;3.13;2.80;;;2.20;99.90;;;;;;5007582;28;20662;-66
2021/01/29 03:44:53;;;;;;;5.13;2.60;;;2.20;99.90;;;;;;5004014;28;22663;-66
2021/01/29 03:48:03;;;;;;;3.50;2.83;;;2.20;99.90;;;;;;5010248;28;20609;-66
2021/01/29 03:51:12;;;;;;;3.37;2.40;;;2.20;99.90;;;;;;5006477;28;20627;-66
2021/01/29 03:54:29;;;;;;;2.50;2.30;;;2.20;99.90;;;;;;5023826;28;20726;-66
2021/01/29 03:57:31;;;;;;;5.43;2.40;;;2.20;99.90;;;;;;4999587;28;20647;-66
2021/01/29 04:00:56;;;;;;;4.07;3.03;;;2.20;99.90;;;;;;5023691;28;20598;-66
2021/01/29 04:03:47;;;;;;;3.70;2.97;;;2.10;99.90;;;;;;5021044;28;20658;-66
2021/01/29 04:06:53;;;;;;;4.77;2.90;;;2.20;99.90;;;;;;5021331;28;20718;-66
2021/01/29 04:09:37;;;;;;;3.80;2.60;;;2.10;99.90;;;;;;5011960;28;20637;-66
2021/01/29 04:12:32;;;;;;;4.07;3.40;;;2.10;99.90;;;;;;5021495;28;21112;-65
2021/01/29 04:15:37;;;;;;;5.30;3.37;;;2.10;99.90;;;;;;5023162;28;20670;-66
2021/01/29 04:18:40;;;;;;;4.03;3.17;;;2.10;99.90;;;;;;5007069;28;21324;-66
2021/01/29 04:21:39;;;;;;;4.80;3.17;;;2.10;99.90;;;;;;5025966;28;21696;-66
2021/01/29 04:24:47;;;;;;;5.30;3.07;;;2.10;99.90;;;;;;5019626;28;21024;-66
2021/01/29 04:27:37;;;;;;;3.47;3.17;;;2.10;99.90;;;;;;5023459;28;20619;-65
2021/01/29 04:30:29;;;;;;;5.30;3.47;;;2.10;99.90;;;;;;5023110;28;20611;-66
2021/01/29 04:33:20;;;;;;;4.47;3.03;;;2.10;99.90;;;;;;5025452;28;20738;-66
2021/01/29 04:36:06;;;;;;;3.77;3.00;;;2.20;99.90;;;;;;5014761;28;20643;-66
2021/01/29 04:38:55;;;;;;;3.70;3.30;;;2.20;99.90;;;;;;4991977;28;20622;-67
2021/01/29 04:41:45;;;;;;;3.63;3.23;;;2.20;99.90;;;;;;5021835;28;21001;-67
2021/01/29 04:44:58;;;;;;;3.00;2.70;;;2.20;99.90;;;;;;5019431;28;20693;-67
2021/01/29 04:48:05;;;;;;;4.20;3.27;;;2.20;99.90;;;;;;5009701;28;21240;-66
2021/01/29 04:51:23;;;;;;;5.10;3.40;;;2.20;99.90;;;;;;5009774;28;20587;-67
2021/01/29 04:54:48;;;;;;;4.47;2.70;;;2.20;99.90;;;;;;5005228;28;20647;-67
2021/01/29 04:57:36;;;;;;;4.17;3.40;;;2.20;99.90;;;;;;5010493;28;21107;-67
2021/01/29 05:01:01;;;;;;;3.73;3.00;;;2.10;99.90;;;;;;5023879;28;20591;-67
2021/01/29 05:04:07;;;;;;;4.43;3.17;;;2.10;99.90;;;;;;5024784;28;20659;-66
2021/01/29 05:07:07;;;;;;;5.77;3.67;;;2.10;99.90;;;;;;5025941;28;20952;-67
2021/01/29 05:09:58;;;;;;;4.83;3.33;;;2.10;99.90;;;;;;5027237;28;20595;-67
2021/01/29 05:13:01;;;;;;;4.17;3.13;;;2.20;99.90;;;;;;5014741;28;21258;-67
2021/01/29 05:16:15;;;;;;;4.00;3.10;;;2.20;99.90;;;;;;5030224;28;20725;-67
2021/01/29 05:19:16;;;;;;;3.57;2.73;;;2.10;99.90;;;;;;5013223;28;20578;-67
2021/01/29 05:22:16;;;;;;;3.77;2.90;;;2.10;99.90;;;;;;5027171;28;20697;-67
2021/01/29 05:25:19;;;;;;;6.10;3.00;;;2.10;99.90;;;;;;5024710;28;21066;-67
2021/01/29 05:28:41;;;;;;;3.70;2.47;;;2.10;99.90;;;;;;5021661;28;20583;-67
2021/01/29 05:31:35;;;;;;;2.50;2.30;;;2.10;99.90;;;;;;5028446;28;20646;-66
2021/01/29 05:34:37;;;;;;;4.10;2.63;;;2.00;99.90;;;;;;5009021;28;20796;-66
2021/01/29 05:38:06;;;;;;;2.63;2.43;;;2.10;99.90;;;;;;5018363;28;21058;-66
2021/01/29 05:41:05;;;;;;;3.17;2.67;;;2.10;99.90;;;;;;4998025;28;20681;-67
2021/01/29 05:44:09;;;;;;;3.30;2.60;;;2.10;99.90;;;;;;5024584;28;20647;-67
2021/01/29 05:47:21;;;;;;;3.70;1.90;;;2.20;99.90;;;;;;5020879;28;20633;-67
2021/01/29 05:50:30;;;;;;;3.97;2.47;;;2.00;99.90;;;;;;5019134;28;20610;-67
2021/01/29 05:53:29;;;;;;;2.60;2.30;;;2.00;99.90;;;;;;5024079;28;21169;-66
2021/01/29 05:56:30;;;;;;;3.90;2.13;;;2.00;99.90;;;;;;5006269;28;20670;-67
2021/01/29 05:59:53;;;;;;;2.30;1.90;;;1.90;99.90;;;;;;5013684;28;20587;-67
2021/01/29 06:02:55;;;;;;;4.20;2.60;;;1.90;99.90;;;;;;5021495;28;20658;-66
2021/01/29 06:06:17;;;;;;;2.63;2.07;;;1.90;99.90;;;;;;5010695;28;20667;-67
2021/01/29 06:09:39;;;;;;;3.93;2.50;;;1.90;99.90;;;;;;5027177;28;21063;-65
2021/01/29 06:12:59;;;;;;;3.70;2.50;;;2.00;99.90;;;;;;5024184;28;20749;-66
2021/01/29 06:16:07;;;;;;;5.00;2.50;;;1.90;99.90;;;;;;5020533;28;20706;-66
2021/01/29 06:19:29;;;;;;;2.20;1.93;;;1.90;99.90;;;;;;5000532;28;20677;-70
2021/01/29 06:22:26;;;;;;;3.43;2.23;;;1.90;99.90;;;;;;5017110;28;20661;-68
2021/01/29 06:25:51;;;;;;;3.00;2.10;;;1.90;99.90;;;;;;5001316;28;20659;-67
2021/01/29 06:28:57;;;;;;;4.10;1.80;;;2.00;99.90;;;;;;5002886;28;20705;-68
2021/01/29 06:31:42;;;;;;;4.40;2.10;;;2.00;99.90;;;;;;5007516;28;20665;-65
2021/01/29 06:34:44;;;;;;;3.20;1.77;;;2.00;99.90;;;;;;5009865;28;20647;-66
2021/01/29 06:38:18;;;;;;;6.10;1.93;;;2.00;99.90;;;;;;5020841;28;20637;-68
2021/01/29 06:41:23;;;;;;;3.73;1.93;;;2.00;99.90;;;;;;4999514;28;20701;-65
2021/01/29 06:44:07;;;;;;;2.43;2.03;;;2.10;99.90;;;;;;5005317;28;20642;-67
2021/01/29 06:47:26;;;;;;;4.63;2.27;;;2.10;99.90;;;;;;5013676;28;20665;-66
2021/01/29 06:50:22;;;;;;;2.60;1.70;;;2.10;99.90;;;;;;5010831;28;20614;-66
2021/01/29 06:53:38;;;;;;;2.80;1.90;;;2.10;99.90;;;;;;5008415;28;20642;-66
2021/01/29 06:56:31;;;;;;;5.67;2.07;;;2.10;99.90;;;;;;5024864;28;20753;-66
2021/01/29 06:59:43;;;;;;;2.07;1.77;;;2.00;99.90;;;;;;5018973;28;20611;-66
2021/01/29 07:02:47;;;;;;;2.13;1.80;;;2.00;99.90;;;;;;5014544;28;20873;-65
2021/01/29 07:06:00;;;;;;;2.90;1.90;;;2.10;99.90;;;;;;5000069;28;20754;-67
2021/01/29 07:09:12;;;;;;;8.83;2.03;;;2.10;99.90;;;;;;5000279;28;20757;-66
2021/01/29 07:12:21;;;;;;;3.67;1.93;;;2.10;99.90;;;;;;5021451;28;20666;-66
2021/01/29 07:15:22;;;;;;;4.97;2.00;;;2.10;99.90;;;;;;5005839;28;20664;-67
2021/01/29 07:18:23;;;;;;;1.73;1.60;;;2.00;99.90;;;;;;5005764;28;20637;-68
2021/01/29 07:21:17;;;;;;;2.83;2.00;;;2.00;99.90;;;;;;5008431;28;20597;-65
2021/01/29 07:24:20;;;;;;;1.90;1.80;;;2.00;99.90;;;;;;5001953;28;20707;-66
2021/01/29 07:27:43;;;;;;;2.00;1.80;;;2.00;99.90;;;;;;5025755;28;21255;-67
2021/01/29 07:30:57;;;;;;;1.97;1.60;;;2.00;99.90;;;;;;5009114;28;20595;-66
2021/01/29 07:33:55;;;;;;;5.43;1.67;;;2.00;99.90;;;;;;5010297;28;20650;-67
2021/01/29 07:36:52;;;;;;;1.90;1.70;;;2.00;99.90;;;;;;5021876;28;20952;-66
2021/01/29 07:40:11;;;;;;;2.20;1.43;;;2.00;99.90;;;;;;5027958;28;20575;-66
2021/01/29 07:43:33;;;;;;;2.10;1.90;;;2.00;99.90;;;;;;5026728;28;20653;-66
2021/01/29 07:46:42;;;;;;;2.90;1.40;;;2.00;99.90;;;;;;5026898;28;20864;-65
2021/01/29 07:49:36;;;;;;;1.83;1.60;;;1.90;99.90;;;;;;5027634;28;21231;-66
2021/01/29 07:52:43;;;;;;;2.73;2.00;;;1.90;99.90;;;;;;5004659;28;20653;-66
2021/01/29 07:55:31;;;;;;;3.47;1.60;;;1.90;99.90;;;;;;5006333;28;21050;-67
2021/01/29 07:58:50;;;;;;;1.80;1.50;;;2.00;99.90;;;;;;5017456;28;21327;-66
2021/01/29 08:01:40;;;;;;;2.33;1.37;;;2.00;99.90;;;;;;4917138;29;20670;-66
2021/01/29 08:04:55;;;;;;;1.53;1.40;;;2.00;99.90;;;;;;5026270;28;20653;-66
2021/01/29 08:07:47;;;;;;;2.97;1.40;;;2.00;99.90;;;;;;5032248;28;20740;-66
2021/01/29 08:10:36;;;;;;;1.83;1.60;;;2.00;99.90;;;;;;5037770;28;20583;-64
2021/01/29 08:13:32;;;;;;;2.30;1.70;;;2.10;99.90;;;;;;5029632;28;20725;-66
2021/01/29 08:16:42;;;;;;;1.40;1.30;;;2.00;99.90;;;;;;5009835;28;20949;-66
2021/01/29 08:19:42;;;;;;;2.13;1.50;;;2.10;99.90;;;;;;5010198;28;20610;-65
2021/01/29 08:22:55;;;;;;;3.20;1.97;;;2.10;99.90;;;;;;5032059;28;20659;-66
2021/01/29 08:26:23;;;;;;;1.43;1.30;;;2.10;99.90;;;;;;5017121;28;20709;-67
2021/01/29 08:29:41;;;;;;;2.60;1.33;;;2.10;99.90;;;;;;4932227;28;20641;-66
2021/01/29 08:32:50;;;;;;;2.50;1.77;;;2.10;99.90;;;;;;4945156;28;20786;-65
2021/01/29 08:35:57;;;;;;;2.40;1.60;;;2.10;99.90;;;;;;4939715;28;20753;-65
2021/01/29 08:38:47;;;;;;;2.77;1.87;;;2.20;99.90;;;;;;4924324;28;20698;-65
2021/01/29 08:41:54;;;;;;;4.57;1.87;;;2.30;99.90;;;;;;4918980;28;20714;-65
2021/01/29 08:45:11;;;;;;;1.40;1.30;;;2.20;99.90;;;;;;4940414;28;20652;-65
2021/01/29 08:48:16;;;;;;;1.90;1.67;;;2.30;99.90;;;;;;4941792;29;20766;-67
2021/01/29 08:51:27;;;;;;;3.70;1.93;;;2.30;99.90;;;;;;4927750;28;20608;-66
2021/01/29 08:54:28;;;;;;;2.13;1.70;;;2.30;99.90;;;;;;4934136;28;20653;-65
2021/01/29 08:57:55;;;;;;;2.13;1.70;;;2.40;99.90;;;;;;4927230;28;20694;-66
2021/01/29 09:00:41;;;;;;;3.20;2.20;;;2.40;99.90;;;;;;5010068;28;21251;-66
2021/01/29 09:03:53;;;;;;;2.93;2.10;;;2.50;99.90;;;;;;5007184;28;20638;-66
2021/01/29 09:06:41;;;;;;;3.40;1.80;;;2.40;99.90;;;;;;5027124;28;20614;-66
2021/01/29 09:09:30;;;;;;;2.07;1.57;;;2.40;99.90;;;;;;5025551;28;20986;-67
2021/01/29 09:12:24;;;;;;;2.10;1.70;;;2.50;99.90;;;;;;5022244;28;20705;-66
2021/01/29 09:15:24;;;;;;;4.13;1.83;;;2.50;99.90;;;;;;5015541;28;20681;-66
2021/01/29 09:18:24;;;;;;;2.97;1.73;;;2.50;99.90;;;;;;5018269;28;21039;-66
2021/01/29 09:21:12;;;;;;;3.67;1.80;;;2.50;99.90;;;;;;5024369;28;20812;-65
2021/01/29 09:24:04;;;;;;;2.17;1.97;;;2.50;99.90;;;;;;5020395;28;20650;-66
2021/01/29 09:27:04;;;;;;;2.33;2.10;;;2.60;99.90;;;;;;5010975;28;20631;-64
2021/01/29 09:29:59;;;;;;;3.23;1.97;;;2.60;99.90;;;;;;5012409;28;20770;-65
2021/01/29 09:32:50;;;;;;;3.20;2.30;;;2.60;99.90;;;;;;5022793;28;20658;-65
2021/01/29 09:35:46;;;;;;;3.83;2.23;;;2.60;99.90;;;;;;5003807;28;20927;-66
2021/01/29 09:38:36;;;;;;;2.10;1.67;;;2.70;99.90;;;;;;5014866;28;20599;-65
2021/01/29 09:41:22;;;;;;;4.60;2.30;;;2.70;99.90;;;;;;5015030;28;20794;-65
2021/01/29 09:44:18;;;;;;;1.70;1.60;;;2.70;99.90;;;;;;5024811;28;20755;-68
2021/01/29 09:47:04;;;;;;;3.10;1.80;;;2.70;99.90;;;;;;5028245;28;20618;-66
2021/01/29 09:49:57;;;;;;;3.67;2.10;;;2.70;99.90;;;;;;5032352;28;20607;-69
2021/01/29 09:53:08;;;;;;;1.87;1.77;;;2.80;99.90;;;;;;5011761;28;21000;-67
2021/01/29 09:56:08;;;;;;;3.67;1.70;;;2.80;99.90;;;;;;5029144;28;20629;-67
2021/01/29 09:58:56;;;;;;;2.03;1.90;;;2.80;99.90;;;;;;5026857;28;20610;-67
2021/01/29 10:01:46;;;;;;;2.30;1.60;;;2.80;99.90;;;;;;5014862;28;20656;-67
2021/01/29 10:04:52;;;;;;;1.63;1.47;;;2.90;99.90;;;;;;5024143;28;20635;-67
2021/01/29 10:07:44;;;;;;;2.33;1.53;;;2.90;99.90;;;;;;5011668;28;23584;-66
2021/01/29 10:10:49;;;;;;;2.63;1.80;;;3.00;99.90;;;;;;5024383;28;20686;-66
2021/01/29 10:13:52;;;;;;;2.03;1.53;;;3.00;99.90;;;;;;4997361;28;20627;-66
2021/01/29 10:16:51;;;;;;;2.00;1.53;;;3.10;99.90;;;;;;5019901;28;20742;-66
2021/01/29 10:19:42;;;;;;;2.27;1.87;;;3.10;99.90;;;;;;5012764;28;20606;-65
2021/01/29 10:22:39;;;;;;;2.30;1.90;;;3.10;99.90;;;;;;5021780;28;21135;-65
2021/01/29 10:25:38;;;;;;;3.70;1.90;;;3.10;99.90;;;;;;5014230;28;20702;-66
2021/01/29 10:28:57;;;;;;;2.30;1.83;;;3.10;99.90;;;;;;5031337;28;20636;-66
2021/01/29 10:31:49;;;;;;;3.87;1.63;;;3.10;99.90;;;;;;5021105;28;20650;-66
2021/01/29 10:34:41;;;;;;;3.43;1.60;;;3.20;99.90;;;;;;5005215;28;20642;-65
2021/01/29 10:37:32;;;;;;;2.00;1.50;;;3.20;99.90;;;;;;5024438;28;20598;-66
2021/01/29 10:40:27;;;;;;;2.60;1.33;;;3.20;99.90;;;;;;5021398;28;20615;-66
2021/01/29 10:43:27;;;;;;;1.93;1.63;;;3.20;99.90;;;;;;5024183;28;20686;-66
2021/01/29 10:46:45;;;;;;;4.67;1.80;;;3.20;99.90;;;;;;5025486;28;20650;-66
2021/01/29 10:50:31;;;;;;;1.80;1.70;;;3.20;99.90;;;;;;5021258;28;20660;-67
2021/01/29 10:53:24;;;;;;;1.97;1.83;;;3.30;99.90;;;;;;4949541;28;24021;-65
2021/01/29 10:56:16;;;;;;;2.93;1.87;;;3.30;99.90;;;;;;5019131;28;20630;-66
2021/01/29 10:59:30;;;;;;;1.90;1.70;;;3.30;99.90;;;;;;5024426;28;20622;-67
2021/01/29 11:02:32;;;;;;;2.80;2.03;;;3.30;99.90;;;;;;5026975;28;20654;-66
2021/01/29 11:05:23;;;;;;;2.33;1.80;;;3.30;99.90;;;;;;5018536;28;20649;-67
2021/01/29 11:08:19;;;;;;;1.50;1.40;;;3.40;99.90;;;;;;5016130;28;21236;-67
2021/01/29 11:11:13;;;;;;;2.00;1.80;;;3.40;99.90;;;;;;5020216;28;20616;-66
2021/01/29 11:14:15;;;;;;;1.90;1.40;;;3.40;99.90;;;;;;5003459;28;20643;-66
2021/01/29 11:17:18;;;;;;;3.73;1.90;;;3.40;99.90;;;;;;5018938;28;21076;-66
2021/01/29 11:20:22;;;;;;;1.70;1.57;;;3.40;99.90;;;;;;5020557;28;20622;-66
2021/01/29 11:23:30;;;;;;;2.00;1.70;;;3.40;99.90;;;;;;5014195;28;20650;-66
2021/01/29 11:26:27;;;;;;;4.23;1.80;;;3.40;99.90;;;;;;5001729;28;20658;-66
2021/01/29 11:29:26;;;;;;;3.73;1.83;;;3.40;99.90;;;;;;5022824;28;21292;-66
2021/01/29 11:32:33;;;;;;;2.23;1.60;;;3.40;99.90;;;;;;5010038;28;20655;-66
2021/01/29 11:35:38;;;;;;;2.27;1.90;;;3.40;99.90;;;;;;5009446;28;21240;-65
2021/01/29 11:38:50;;;;;;;2.40;1.90;;;3.40;99.90;;;;;;5015059;28;20641;-66
2021/01/29 11:42:10;;;;;;;3.03;2.10;;;3.30;99.90;;;;;;5021507;28;21267;-67
2021/01/29 11:45:21;;;;;;;1.80;1.70;;;3.30;99.90;;;;;;5004780;28;20755;-67
2021/01/29 11:48:29;;;;;;;1.77;1.67;;;3.30;99.90;;;;;;5018331;28;20773;-67
2021/01/29 11:51:19;;;;;;;2.80;1.83;;;3.30;99.90;;;;;;5019731;28;20770;-67
2021/01/29 11:54:23;;;;;;;1.70;1.47;;;3.30;99.90;;;;;;5010810;28;21299;-67
2021/01/29 11:57:44;;;;;;;1.60;1.50;;;3.20;99.90;;;;;;5005861;28;20606;-67
2021/01/29 12:01:04;;;;;;;2.27;1.80;;;3.20;99.90;;;;;;5016639;28;21190;-67
2021/01/29 12:04:05;;;;;;;2.10;1.60;;;3.20;99.90;;;;;;4907615;29;20655;-66
2021/01/29 12:07:02;;;;;;;2.47;1.60;;;3.20;99.90;;;;;;4988345;28;20692;-67
2021/01/29 12:10:02;;;;;;;3.27;1.73;;;3.20;99.90;;;;;;5020322;28;20676;-67
2021/01/29 12:12:56;;;;;;;2.87;1.73;;;3.20;99.90;;;;;;5023937;28;20693;-66
2021/01/29 12:15:43;;;;;;;2.63;1.70;;;3.10;99.90;;;;;;5003987;28;20741;-66
2021/01/29 12:18:32;;;;;;;2.27;1.67;;;3.10;99.90;;;;;;5021214;28;20633;-66
2021/01/29 12:21:25;;;;;;;2.00;1.80;;;3.10;99.90;;;;;;5006147;28;20789;-66
2021/01/29 12:24:22;;;;;;;6.03;2.37;;;3.10;99.90;;;;;;5020654;28;20835;-66
2021/01/29 12:27:20;;;;;;;2.80;1.83;;;3.10;99.90;;;;;;5022545;28;20619;-66
2021/01/29 12:30:13;;;;;;;2.30;1.93;;;3.10;99.90;;;;;;5008287;28;21221;-66
2021/01/29 12:33:09;;;;;;;1.70;1.60;;;3.10;99.90;;;;;;5018665;28;20677;-66
2021/01/29 12:36:03;;;;;;;2.20;2.00;;;3.00;99.90;;;;;;5019994;28;20724;-65
2021/01/29 12:39:14;;;;;;;2.10;1.90;;;3.00;99.90;;;;;;5015739;28;20989;-64
2021/01/29 12:42:18;;;;;;;2.20;2.00;;;2.90;99.90;;;;;;5008246;28;20658;-65
2021/01/29 12:45:07;;;;;;;2.70;1.90;;;2.90;99.90;;;;;;5013013;28;21271;-66
2021/01/29 12:48:08;;;;;;;2.10;1.93;;;2.80;99.90;;;;;;5010267;28;20681;-65
2021/01/29 12:51:18;;;;;;;2.53;1.90;;;2.70;99.90;;;;;;5022098;28;21289;-66
2021/01/29 12:54:10;;;;;;;2.67;1.87;;;2.70;99.90;;;;;;5011530;28;20630;-66
2021/01/29 12:57:17;;;;;;;6.17;2.20;;;2.60;99.90;;;;;;5031882;28;20634;-66
2021/01/29 13:00:15;;;;;;;2.23;1.80;;;2.60;99.90;;;;;;5024148;28;20625;-66
2021/01/29 13:03:07;;;;;;;2.83;2.30;;;2.60;99.90;;;;;;5019641;28;21379;-66
2021/01/29 13:06:06;;;;;;;2.90;2.40;;;2.60;99.90;;;;;;5017812;28;20742;-64
2021/01/29 13:09:31;;;;;;;1.93;1.83;;;2.60;99.90;;;;;;5002799;28;20766;-66
2021/01/29 13:12:37;;;;;;;2.30;2.00;;;2.60;99.90;;;;;;5016648;28;20658;-66
2021/01/29 13:15:40;;;;;;;2.03;1.73;;;2.60;99.90;;;;;;5002550;28;20646;-66
2021/01/29 13:18:47;;;;;;;2.50;1.90;;;2.40;99.90;;;;;;5015984;28;21217;-64
2021/01/29 13:21:40;;;;;;;3.20;2.47;;;2.40;99.90;;;;;;5015497;28;20658;-66
2021/01/29 13:24:31;;;;;;;2.27;2.07;;;2.40;99.90;;;;;;5002444;28;20732;-66
2021/01/29 13:27:16;;;;;;;2.70;2.20;;;2.30;99.90;;;;;;5020594;28;20633;-65
2021/01/29 13:30:26;;;;;;;2.03;1.70;;;2.30;99.90;;;;;;5017156;28;20810;-64
2021/01/29 13:33:25;;;;;;;2.83;2.07;;;2.30;99.90;;;;;;5018553;28;21039;-66
2021/01/29 13:36:20;;;;;;;2.50;2.07;;;2.30;99.90;;;;;;5018719;28;20680;-66
2021/01/29 13:39:27;;;;;;;2.13;1.90;;;2.20;99.90;;;;;;5019376;28;20603;-66
2021/01/29 13:42:11;;;;;;;3.30;1.93;;;2.10;99.90;;;;;;5002736;28;20717;-66
2021/01/29 13:45:01;;;;;;;2.83;1.90;;;2.10;99.90;;;;;;5018065;28;20638;-67
2021/01/29 13:47:49;;;;;;;2.73;2.13;;;2.10;99.90;;;;;;5019046;28;20626;-65
2021/01/29 13:50:36;;;;;;;4.33;2.50;;;2.20;99.90;;;;;;5009369;28;20971;-67
2021/01/29 13:53:29;;;;;;;2.63;2.27;;;2.10;99.90;;;;;;5001270;28;20595;-66
2021/01/29 13:56:30;;;;;;;3.93;2.30;;;2.10;99.90;;;;;;5014217;28;20677;-66
2021/01/29 13:59:48;;;;;;;3.03;2.10;;;2.10;99.90;;;;;;4999736;28;21220;-66
2021/01/29 14:02:46;;;;;;;2.70;1.97;;;2.00;99.90;;;;;;4997176;28;21266;-66
2021/01/29 14:05:31;;;;;;;3.30;2.00;;;2.00;99.90;;;;;;5015709;28;21050;-65
2021/01/29 14:08:18;;;;;;;4.30;2.27;;;2.00;99.90;;;;;;5014924;28;20734;-65
2021/01/29 14:11:30;;;;;;;3.80;3.00;;;2.00;99.90;;;;;;5016762;28;20959;-66
2021/01/29 14:14:47;;;;;;;3.87;2.77;;;2.10;99.90;;;;;;5014164;28;20678;-66
2021/01/29 14:17:37;;;;;;;4.00;2.83;;;2.10;99.90;;;;;;5003932;28;20689;-66
2021/01/29 14:20:34;;;;;;;3.60;2.63;;;2.00;99.90;;;;;;5004604;28;21178;-66
2021/01/29 14:23:31;;;;;;;3.87;2.97;;;2.00;99.90;;;;;;5020873;28;20686;-66
2021/01/29 14:26:45;;;;;;;3.73;3.00;;;2.00;99.90;;;;;;5003902;28;21066;-65
2021/01/29 14:29:53;;;;;;;3.00;2.50;;;2.00;99.90;;;;;;5015630;28;20622;-66
2021/01/29 14:33:03;;;;;;;2.60;2.40;;;2.00;99.90;;;;;;5020228;28;20647;-65
2021/01/29 14:35:55;;;;;;;6.90;3.43;;;2.00;99.90;;;;;;4992800;28;20782;-67
2021/01/29 14:38:58;;;;;;;3.90;2.70;;;2.10;99.90;;;;;;5024543;28;20599;-66
2021/01/29 14:42:04;;;;;;;5.10;2.40;;;2.10;99.90;;;;;;5002354;28;20678;-66
2021/01/29 14:45:19;;;;;;;4.40;2.70;;;2.00;99.90;;;;;;5013314;28;20789;-67
2021/01/29 14:48:35;;;;;;;2.93;2.37;;;2.00;99.90;;;;;;5012518;28;20707;-66
2021/01/29 14:51:50;;;;;;;4.77;2.43;;;1.90;99.90;;;;;;5022842;28;20643;-66
2021/01/29 14:54:38;;;;;;;3.00;2.30;;;1.90;99.90;;;;;;5018386;28;20658;-65
2021/01/29 14:57:29;;;;;;;2.50;2.30;;;1.90;99.90;;;;;;5000962;28;21266;-65
2021/01/29 15:00:44;;;;;;;4.80;2.77;;;1.90;99.90;;;;;;5015681;28;20662;-66
2021/01/29 15:03:38;;;;;;;2.80;2.23;;;1.90;99.90;;;;;;4998518;28;20700;-65
2021/01/29 15:06:26;;;;;;;3.60;2.20;;;1.90;99.90;;;;;;5015727;28;20595;-65
2021/01/29 15:09:17;;;;;;;2.80;2.60;;;1.90;99.90;;;;;;5017527;28;20645;-65
2021/01/29 15:12:02;;;;;;;4.20;2.60;;;1.90;99.90;;;;;;4996461;28;21273;-65
2021/01/29 15:14:58;;;;;;;3.80;2.83;;;1.90;99.90;;;;;;4996770;28;20786;-65
2021/01/29 15:17:52;;;;;;;3.43;2.60;;;1.90;99.90;;;;;;5018732;28;20689;-65
2021/01/29 15:20:48;;;;;;;2.80;2.20;;;1.90;99.90;;;;;;5012863;28;20620;-68
2021/01/29 15:23:36;;;;;;;2.50;2.13;;;1.90;99.90;;;;;;5017536;28;20607;-68
2021/01/29 15:26:21;;;;;;;2.70;2.10;;;1.90;99.90;;;;;;5016469;28;20623;-67
2021/01/29 15:29:09;;;;;;;3.57;2.50;;;1.90;99.90;;;;;;5026011;28;20963;-69
2021/01/29 15:32:00;;;;;;;2.13;1.70;;;1.80;99.90;;;;;;5020973;28;20653;-67
2021/01/29 15:35:14;;;;;;;2.13;1.93;;;1.80;99.90;;;;;;5009265;28;20793;-67
2021/01/29 15:38:07;;;;;;;2.00;1.60;;;1.70;99.90;;;;;;5017318;28;20617;-69
2021/01/29 15:40:52;;;;;;;2.60;1.87;;;1.70;99.90;;;;;;5003028;28;20626;-69
2021/01/29 15:43:39;;;;;;;2.33;2.07;;;1.80;99.90;;;;;;5016002;28;20630;-68
2021/01/29 15:46:45;;;;;;;2.30;1.73;;;1.70;99.90;;;;;;5016183;28;20603;-69